Spabunker Treinta — ECIK — position and weather

sailwx.info

Track history (hours):
 
Tides and Currents Weather Stations Pressure Air Temp Water Temp Dewpoint Dewpoint Depression Visibility Wind Speed Wind Dir Waves Ship Positions

Spabunker Treinta

Last reported at 2017-Sep-24 17:49 UTC. Time now 2017-Sep-25 08:22 UTC.
Position N 36°09' W 005°26'.

Length 86 m; draft 5.9 m.

Type: Tanker. MMSI: 224142890.

Date/timePositionNaut miles runAvg speedWind from/ knotsBaromVisibWave heightAir tempDewpointWater temp
2017-Sep-24 17:49N 36°09' W 005°26'1 0.4
2017-Sep-24 16:24N 36°08' W 005°26'0 0.0
2017-Sep-24 15:57N 36°08' W 005°26'0 0.0
2017-Sep-24 05:40N 36°08' W 005°26'0 0.1
2017-Sep-24 05:30N 36°08' W 005°26'0 0.0
2017-Sep-24 05:00N 36°08' W 005°26'0 0.0
2017-Sep-24 04:30N 36°08' W 005°26'0 0.0
2017-Sep-24 04:00N 36°08' W 005°26'0 0.0
2017-Sep-24 03:30N 36°08' W 005°26'0 0.0
2017-Sep-24 03:00N 36°08' W 005°26'0 0.0
2017-Sep-24 02:27N 36°08' W 005°26'0 0.0
2017-Sep-24 01:59N 36°08' W 005°26'0 0.0
2017-Sep-24 01:30N 36°08' W 005°26'0 0.0
2017-Sep-24 01:00N 36°08' W 005°26'0 0.0
2017-Sep-24 00:29N 36°08' W 005°26'0 0.0
2017-Sep-23 23:59N 36°08' W 005°26'1 1.9
2017-Sep-23 23:29N 36°09' W 005°26'0 0.1
2017-Sep-23 22:51N 36°09' W 005°26'  
2017-Sep-21 06:16N 36°11' W 005°24'0 0.0
2017-Sep-21 05:59N 36°11' W 005°24'0 0.0
2017-Sep-21 02:09N 36°11' W 005°24'0 0.0
2017-Sep-21 01:47N 36°11' W 005°24'0 0.0
2017-Sep-21 01:30N 36°11' W 005°24'0 0.0
2017-Sep-21 00:59N 36°11' W 005°24'0 0.0
2017-Sep-21 00:30N 36°11' W 005°24'0 0.0
2017-Sep-21 00:00N 36°11' W 005°24'0 0.0
2017-Sep-20 23:30N 36°11' W 005°24'0 0.0
2017-Sep-20 23:00N 36°11' W 005°24'0 0.0
2017-Sep-20 22:30N 36°11' W 005°24'0 0.0
2017-Sep-20 21:53N 36°11' W 005°24'0 0.0
2017-Sep-20 21:26N 36°11' W 005°24'0 0.0
2017-Sep-20 20:59N 36°11' W 005°24'0 0.0
2017-Sep-20 20:30N 36°11' W 005°24'0 0.0
2017-Sep-20 20:00N 36°11' W 005°24'0 0.0
2017-Sep-20 19:23N 36°11' W 005°24'2 0.1
2017-Sep-20 04:52N 36°09' W 005°25'0 0.2
2017-Sep-20 04:30N 36°09' W 005°24'0 0.0
2017-Sep-20 04:00N 36°09' W 005°24'0 0.2
2017-Sep-20 03:29N 36°09' W 005°24'0 0.0
2017-Sep-20 02:58N 36°09' W 005°24'0 0.1
2017-Sep-20 02:30N 36°09' W 005°24'0 0.0
2017-Sep-20 02:00N 36°09' W 005°24'0 0.2
2017-Sep-20 01:29N 36°09' W 005°24'0 0.3
2017-Sep-20 01:00N 36°10' W 005°24'1 0.3
2017-Sep-19 21:38N 36°10' W 005°26'0 0.0
2017-Sep-19 20:01N 36°10' W 005°26'0 0.0
2017-Sep-19 20:00N 36°10' W 005°26'0 0.0
2017-Sep-19 19:28N 36°10' W 005°26'0 0.1
2017-Sep-19 19:00N 36°10' W 005°26'1 2.1
2017-Sep-19 18:30N 36°09' W 005°26'0 0.0
2017-Sep-19 18:00N 36°09' W 005°26'0 0.0
2017-Sep-19 17:30N 36°09' W 005°26'0 0.0
2017-Sep-19 17:00N 36°09' W 005°26'0 0.0
2017-Sep-19 16:30N 36°09' W 005°26'0 0.0
2017-Sep-19 14:24N 36°09' W 005°26'0 0.0
2017-Sep-19 13:59N 36°09' W 005°26'0 0.1
2017-Sep-19 11:36N 36°09' W 005°26'3 0.1
2017-Sep-17 17:19N 36°06' W 005°25'0 0.0
2017-Sep-17 16:28N 36°06' W 005°25'0 0.0
2017-Sep-17 15:59N 36°06' W 005°25'0 0.0
2017-Sep-17 15:25N 36°06' W 005°25'0 0.1
2017-Sep-17 15:00N 36°06' W 005°25'3 5.3
2017-Sep-17 14:30N 36°08' W 005°25'1 0.1
2017-Sep-17 02:49N 36°09' W 005°26'0 0.0
2017-Sep-16 14:26N 36°09' W 005°26'0 1.0
2017-Sep-16 13:58N 36°08' W 005°26'1 0.1
2017-Sep-16 03:39N 36°08' W 005°25'0 0.0
2017-Sep-16 03:30N 36°08' W 005°25'0 0.0
2017-Sep-16 03:00N 36°08' W 005°25'0 0.0
2017-Sep-16 02:30N 36°08' W 005°25'0 0.0
2017-Sep-16 02:00N 36°08' W 005°25'0 0.0
2017-Sep-16 01:30N 36°08' W 005°25'0 0.1
2017-Sep-16 01:00N 36°08' W 005°25'0 0.0
2017-Sep-16 00:30N 36°08' W 005°25'0 0.0
2017-Sep-16 00:00N 36°08' W 005°25'0 0.0
2017-Sep-15 23:20N 36°08' W 005°25'0 0.0
2017-Sep-15 23:00N 36°08' W 005°25'0 0.0
2017-Sep-15 22:26N 36°08' W 005°25'0 0.1
2017-Sep-15 22:00N 36°08' W 005°25'2 0.2
2017-Sep-15 09:52N 36°06' W 005°24'0 0.1
2017-Sep-15 08:11N 36°06' W 005°24'0 0.1
2017-Sep-15 07:46N 36°06' W 005°24'0 0.1
2017-Sep-15 07:17N 36°06' W 005°24'0 0.0
2017-Sep-15 06:59N 36°06' W 005°24'4 0.3
2017-Sep-14 18:25N 36°09' W 005°26'  
Track history (hours):
 
Tides and Currents Weather Stations Pressure Air Temp Water Temp Dewpoint Dewpoint Depression Visibility Wind Speed Wind Dir Waves Ship Positions

Spabunker Treinta

Last reported at 2017-Sep-24 17:49 UTC. Time now 2017-Sep-25 08:22 UTC.
Position N 36°09' W 005°26'.

Length 86 m; draft 5.9 m.

Type: Tanker. MMSI: 224142890.

Date/timePositionNaut miles runAvg speedWind from/ knotsBaromVisibWave heightAir tempDewpointWater temp
2017-Sep-24 17:49N 36°09' W 005°26'1 0.4
2017-Sep-24 16:24N 36°08' W 005°26'0 0.0
2017-Sep-24 15:57N 36°08' W 005°26'0 0.0
2017-Sep-24 05:40N 36°08' W 005°26'0 0.1
2017-Sep-24 05:30N 36°08' W 005°26'0 0.0
2017-Sep-24 05:00N 36°08' W 005°26'0 0.0
2017-Sep-24 04:30N 36°08' W 005°26'0 0.0
2017-Sep-24 04:00N 36°08' W 005°26'0 0.0
2017-Sep-24 03:30N 36°08' W 005°26'0 0.0
2017-Sep-24 03:00N 36°08' W 005°26'0 0.0
2017-Sep-24 02:27N 36°08' W 005°26'0 0.0
2017-Sep-24 01:59N 36°08' W 005°26'0 0.0
2017-Sep-24 01:30N 36°08' W 005°26'0 0.0
2017-Sep-24 01:00N 36°08' W 005°26'0 0.0
2017-Sep-24 00:29N 36°08' W 005°26'0 0.0
2017-Sep-23 23:59N 36°08' W 005°26'1 1.9
2017-Sep-23 23:29N 36°09' W 005°26'0 0.1
2017-Sep-23 22:51N 36°09' W 005°26'  
2017-Sep-21 06:16N 36°11' W 005°24'0 0.0
2017-Sep-21 05:59N 36°11' W 005°24'0 0.0
2017-Sep-21 02:09N 36°11' W 005°24'0 0.0
2017-Sep-21 01:47N 36°11' W 005°24'0 0.0
2017-Sep-21 01:30N 36°11' W 005°24'0 0.0
2017-Sep-21 00:59N 36°11' W 005°24'0 0.0
2017-Sep-21 00:30N 36°11' W 005°24'0 0.0
2017-Sep-21 00:00N 36°11' W 005°24'0 0.0
2017-Sep-20 23:30N 36°11' W 005°24'0 0.0
2017-Sep-20 23:00N 36°11' W 005°24'0 0.0
2017-Sep-20 22:30N 36°11' W 005°24'0 0.0
2017-Sep-20 21:53N 36°11' W 005°24'0 0.0
2017-Sep-20 21:26N 36°11' W 005°24'0 0.0
2017-Sep-20 20:59N 36°11' W 005°24'0 0.0
2017-Sep-20 20:30N 36°11' W 005°24'0 0.0
2017-Sep-20 20:00N 36°11' W 005°24'0 0.0
2017-Sep-20 19:23N 36°11' W 005°24'2 0.1
2017-Sep-20 04:52N 36°09' W 005°25'0 0.2
2017-Sep-20 04:30N 36°09' W 005°24'0 0.0
2017-Sep-20 04:00N 36°09' W 005°24'0 0.2
2017-Sep-20 03:29N 36°09' W 005°24'0 0.0
2017-Sep-20 02:58N 36°09' W 005°24'0 0.1
2017-Sep-20 02:30N 36°09' W 005°24'0 0.0
2017-Sep-20 02:00N 36°09' W 005°24'0 0.2
2017-Sep-20 01:29N 36°09' W 005°24'0 0.3
2017-Sep-20 01:00N 36°10' W 005°24'1 0.3
2017-Sep-19 21:38N 36°10' W 005°26'0 0.0
2017-Sep-19 20:01N 36°10' W 005°26'0 0.0
2017-Sep-19 20:00N 36°10' W 005°26'0 0.0
2017-Sep-19 19:28N 36°10' W 005°26'0 0.1
2017-Sep-19 19:00N 36°10' W 005°26'1 2.1
2017-Sep-19 18:30N 36°09' W 005°26'0 0.0
2017-Sep-19 18:00N 36°09' W 005°26'0 0.0
2017-Sep-19 17:30N 36°09' W 005°26'0 0.0
2017-Sep-19 17:00N 36°09' W 005°26'0 0.0
2017-Sep-19 16:30N 36°09' W 005°26'0 0.0
2017-Sep-19 14:24N 36°09' W 005°26'0 0.0
2017-Sep-19 13:59N 36°09' W 005°26'0 0.1
2017-Sep-19 11:36N 36°09' W 005°26'3 0.1
2017-Sep-17 17:19N 36°06' W 005°25'0 0.0
2017-Sep-17 16:28N 36°06' W 005°25'0 0.0
2017-Sep-17 15:59N 36°06' W 005°25'0 0.0
2017-Sep-17 15:25N 36°06' W 005°25'0 0.1
2017-Sep-17 15:00N 36°06' W 005°25'3 5.3
2017-Sep-17 14:30N 36°08' W 005°25'1 0.1
2017-Sep-17 02:49N 36°09' W 005°26'0 0.0
2017-Sep-16 14:26N 36°09' W 005°26'0 1.0
2017-Sep-16 13:58N 36°08' W 005°26'1 0.1
2017-Sep-16 03:39N 36°08' W 005°25'0 0.0
2017-Sep-16 03:30N 36°08' W 005°25'0 0.0
2017-Sep-16 03:00N 36°08' W 005°25'0 0.0
2017-Sep-16 02:30N 36°08' W 005°25'0 0.0
2017-Sep-16 02:00N 36°08' W 005°25'0 0.0
2017-Sep-16 01:30N 36°08' W 005°25'0 0.1
2017-Sep-16 01:00N 36°08' W 005°25'0 0.0
2017-Sep-16 00:30N 36°08' W 005°25'0 0.0
2017-Sep-16 00:00N 36°08' W 005°25'0 0.0
2017-Sep-15 23:20N 36°08' W 005°25'0 0.0
2017-Sep-15 23:00N 36°08' W 005°25'0 0.0
2017-Sep-15 22:26N 36°08' W 005°25'0 0.1
2017-Sep-15 22:00N 36°08' W 005°25'2 0.2
2017-Sep-15 09:52N 36°06' W 005°24'0 0.1
2017-Sep-15 08:11N 36°06' W 005°24'0 0.1
2017-Sep-15 07:46N 36°06' W 005°24'0 0.1
2017-Sep-15 07:17N 36°06' W 005°24'0 0.0
2017-Sep-15 06:59N 36°06' W 005°24'4 0.3
2017-Sep-14 18:25N 36°09' W 005°26'  

Dump ship's entire track history